createdAt,value
2023-01-31T00:01:57.486Z,12.20
2023-01-31T00:05:57.476Z,11.60
2023-01-31T00:09:56.509Z,12.20
2023-01-31T00:13:55.459Z,10.90
2023-01-31T00:17:53.403Z,11.80
2023-01-31T00:21:52.438Z,12.00
2023-01-31T00:25:50.413Z,11.60
2023-01-31T00:29:48.467Z,10.80
2023-01-31T00:33:46.421Z,11.50
2023-01-31T00:37:44.463Z,10.50
2023-01-31T00:41:43.394Z,10.80
2023-01-31T00:45:41.385Z,11.40
2023-01-31T00:49:39.354Z,11.90
2023-01-31T00:53:38.320Z,11.10
2023-01-31T00:57:36.652Z,9.80
2023-01-31T01:01:38.032Z,11.50
2023-01-31T01:05:36.663Z,10.60
2023-01-31T01:09:34.935Z,11.90
2023-01-31T01:13:33.356Z,10.50
2023-01-31T01:17:31.431Z,10.40
2023-01-31T01:21:35.303Z,10.30
2023-01-31T01:25:33.363Z,10.70
2023-01-31T01:29:31.490Z,10.60
2023-01-31T01:33:29.642Z,11.30
2023-01-31T01:37:27.291Z,10.80
2023-01-31T01:41:26.336Z,11.50
2023-01-31T01:45:29.428Z,9.80
2023-01-31T01:49:34.342Z,10.60
2023-01-31T01:53:37.282Z,11.70
2023-01-31T01:57:47.304Z,10.70
2023-01-31T02:01:50.379Z,10.20
2023-01-31T02:05:55.524Z,9.80
2023-01-31T02:10:10.249Z,11.30
2023-01-31T02:14:16.320Z,10.70
2023-01-31T02:18:14.236Z,10.50
2023-01-31T02:22:30.300Z,10.30
2023-01-31T02:26:34.358Z,11.40
2023-01-31T02:30:48.363Z,11.10
2023-01-31T02:34:59.237Z,11.10
2023-01-31T02:39:31.241Z,10.50
2023-01-31T02:44:12.216Z,12.70
2023-01-31T02:48:21.840Z,11.10
2023-01-31T02:52:47.197Z,11.80
2023-01-31T02:56:48.256Z,13.20
2023-01-31T03:00:49.213Z,12.40
2023-01-31T03:04:49.298Z,11.60
2023-01-31T03:08:47.177Z,11.80
2023-01-31T03:12:54.283Z,11.20
2023-01-31T03:17:22.196Z,10.30
2023-01-31T03:21:27.181Z,11.10
2023-01-31T03:25:28.164Z,11.20
2023-01-31T03:29:31.155Z,11.50
2023-01-31T03:33:38.155Z,11.00
2023-01-31T03:38:10.208Z,11.10
2023-01-31T03:42:19.157Z,12.00
2023-01-31T03:46:30.157Z,12.60
2023-01-31T03:50:45.239Z,11.20
2023-01-31T03:54:48.130Z,11.40
2023-01-31T03:58:55.110Z,10.70
2023-01-31T04:02:53.183Z,10.40
2023-01-31T04:06:51.104Z,9.10
2023-01-31T04:10:49.118Z,9.50
2023-01-31T04:14:47.089Z,9.80
2023-01-31T04:18:45.373Z,9.30
2023-01-31T04:22:43.071Z,9.00
2023-01-31T04:26:41.162Z,9.80
2023-01-31T04:30:39.088Z,10.80
2023-01-31T04:34:37.068Z,10.00
2023-01-31T04:38:35.031Z,10.30
2023-01-31T04:42:33.345Z,9.10
2023-01-31T04:46:31.112Z,9.20
2023-01-31T04:50:29.074Z,8.50
2023-01-31T04:54:27.039Z,9.10
2023-01-31T04:58:25.034Z,8.40
2023-01-31T05:02:23.048Z,8.80
2023-01-31T05:06:21.022Z,9.20
2023-01-31T05:10:19.053Z,8.60
2023-01-31T05:14:17.165Z,10.20
2023-01-31T05:18:15.108Z,8.00
2023-01-31T05:22:13.084Z,8.40
2023-01-31T05:26:11.026Z,9.00
2023-01-31T05:30:12.010Z,8.50
2023-01-31T05:34:10.091Z,8.60
2023-01-31T05:38:08.980Z,10.20
2023-01-31T05:42:06.983Z,10.40
2023-01-31T05:46:05.107Z,9.20
2023-01-31T05:50:03.262Z,8.80
2023-01-31T05:54:01.966Z,9.50
2023-01-31T05:58:02.413Z,9.40
2023-01-31T06:02:01.214Z,10.00
2023-01-31T06:05:59.221Z,8.60
2023-01-31T06:09:56.931Z,8.10
2023-01-31T06:13:56.931Z,8.60
2023-01-31T06:17:54.982Z,9.10
2023-01-31T06:21:52.897Z,8.00
2023-01-31T06:25:50.927Z,9.10
2023-01-31T06:29:48.923Z,8.20
2023-01-31T06:33:48.147Z,9.30
2023-01-31T06:37:47.937Z,9.10
2023-01-31T06:41:47.017Z,10.30
2023-01-31T06:45:47.037Z,9.50
2023-01-31T06:49:45.004Z,8.80
2023-01-31T06:53:42.978Z,8.10
2023-01-31T06:57:40.918Z,8.20
2023-01-31T07:01:18.492Z,8.10
2023-01-31T07:04:42.365Z,8.70
2023-01-31T07:08:06.611Z,8.00
2023-01-31T07:11:30.533Z,7.80
2023-01-31T07:14:54.388Z,9.10
2023-01-31T07:18:18.573Z,8.70
2023-01-31T07:21:42.468Z,8.70
2023-01-31T07:25:07.054Z,6.40
2023-01-31T07:28:31.253Z,8.90
2023-01-31T07:31:58.733Z,7.80
2023-01-31T07:35:23.255Z,8.90
2023-01-31T07:38:47.581Z,7.90
2023-01-31T07:42:11.407Z,7.90
2023-01-31T07:45:35.988Z,6.50
2023-01-31T07:49:00.244Z,9.30
2023-01-31T07:52:24.333Z,7.30
2023-01-31T07:55:48.753Z,7.70
2023-01-31T07:59:13.538Z,7.60
2023-01-31T08:02:55.938Z,8.50
2023-01-31T08:06:20.362Z,9.50
2023-01-31T08:09:47.333Z,10.00
2023-01-31T08:13:12.286Z,8.40
2023-01-31T08:16:39.618Z,7.80
2023-01-31T08:20:03.683Z,7.60
2023-01-31T08:23:31.978Z,7.30
2023-01-31T08:26:56.175Z,7.10
2023-01-31T08:30:20.209Z,6.30
2023-01-31T08:33:44.193Z,7.80
2023-01-31T08:37:08.116Z,7.20
2023-01-31T08:40:33.367Z,8.00
2023-01-31T08:43:59.021Z,8.30
2023-01-31T08:47:23.388Z,7.60
2023-01-31T08:50:47.305Z,8.90
2023-01-31T08:54:12.989Z,8.20
2023-01-31T08:57:43.165Z,7.00
2023-01-31T09:01:15.577Z,8.10
2023-01-31T09:04:40.160Z,8.10
2023-01-31T09:08:04.212Z,7.80
2023-01-31T09:11:30.763Z,9.00
2023-01-31T09:14:55.099Z,7.10
2023-01-31T09:18:19.027Z,6.70
2023-01-31T09:21:43.087Z,8.40
2023-01-31T09:25:07.778Z,6.70
2023-01-31T09:28:32.245Z,6.60
2023-01-31T09:31:56.113Z,7.10
2023-01-31T09:35:21.928Z,7.00
2023-01-31T09:38:46.615Z,7.20
2023-01-31T09:42:29.691Z,6.60
2023-01-31T09:45:57.641Z,7.00
2023-01-31T09:49:31.864Z,6.30
2023-01-31T09:52:55.823Z,8.20
2023-01-31T09:56:29.444Z,8.00
2023-01-31T10:00:19.806Z,7.20
2023-01-31T10:04:06.330Z,8.50
2023-01-31T10:07:33.388Z,7.80
2023-01-31T10:11:01.745Z,6.20
2023-01-31T10:14:43.190Z,7.70
2023-01-31T10:18:18.993Z,7.80
2023-01-31T10:21:54.874Z,7.60
2023-01-31T10:25:30.152Z,9.20
2023-01-31T10:29:03.890Z,6.90
2023-01-31T10:32:39.948Z,7.40
2023-01-31T10:36:12.778Z,8.00
2023-01-31T10:39:57.132Z,7.50
2023-01-31T10:43:30.698Z,7.90
2023-01-31T10:46:59.628Z,6.80
2023-01-31T10:51:02.752Z,6.20
2023-01-31T10:54:41.063Z,7.70
2023-01-31T10:58:06.713Z,6.80
2023-01-31T11:01:31.767Z,6.60
2023-01-31T11:04:59.006Z,5.80
2023-01-31T11:08:35.210Z,7.00
2023-01-31T11:12:02.530Z,5.90
2023-01-31T11:15:39.274Z,5.60
2023-01-31T11:19:16.914Z,7.00
2023-01-31T11:22:40.817Z,8.30
2023-01-31T11:26:04.917Z,6.20
2023-01-31T11:29:32.828Z,6.80
2023-01-31T11:32:57.149Z,8.00
2023-01-31T11:36:23.133Z,8.00
2023-01-31T11:43:32.017Z,7.70
2023-01-31T11:47:04.814Z,9.30
2023-01-31T11:50:41.161Z,7.90
2023-01-31T11:54:06.427Z,8.80
2023-01-31T11:57:41.364Z,7.50
2023-01-31T12:01:14.570Z,6.40
2023-01-31T12:04:44.083Z,6.20
2023-01-31T12:08:32.764Z,6.80
2023-01-31T12:11:59.804Z,5.80
2023-01-31T12:15:23.956Z,6.00
2023-01-31T12:19:06.398Z,8.20
2023-01-31T12:22:53.990Z,7.10
2023-01-31T12:26:46.082Z,7.30
2023-01-31T12:30:30.857Z,6.50
2023-01-31T12:34:33.794Z,6.40
2023-01-31T12:38:06.535Z,7.10
2023-01-31T12:41:57.778Z,6.40
2023-01-31T12:45:24.554Z,5.00
2023-01-31T12:49:28.032Z,6.20
2023-01-31T12:53:15.084Z,5.40
2023-01-31T12:57:35.968Z,5.10
2023-01-31T13:01:06.662Z,5.40
2023-01-31T13:04:49.085Z,5.50
2023-01-31T13:08:23.325Z,5.80
2023-01-31T13:11:55.850Z,5.40
2023-01-31T13:15:35.582Z,6.60
2023-01-31T13:19:04.968Z,7.40
2023-01-31T13:22:38.240Z,6.40
2023-01-31T13:26:27.612Z,5.90
2023-01-31T13:29:58.735Z,6.40
2023-01-31T13:33:25.798Z,6.10
2023-01-31T13:36:55.305Z,6.90
2023-01-31T13:40:23.909Z,7.50
2023-01-31T13:43:48.061Z,7.00
2023-01-31T13:47:17.708Z,7.50
2023-01-31T13:50:54.933Z,7.80
2023-01-31T13:54:24.610Z,7.60
2023-01-31T13:58:05.180Z,7.30
2023-01-31T14:01:33.600Z,7.80
2023-01-31T14:05:07.169Z,7.40
2023-01-31T14:08:50.419Z,7.40
2023-01-31T14:12:17.183Z,7.50
2023-01-31T14:15:51.801Z,9.00
2023-01-31T14:19:21.876Z,8.70
2023-01-31T14:23:24.709Z,8.30
2023-01-31T14:26:48.553Z,7.90
2023-01-31T14:30:47.306Z,8.90
2023-01-31T14:34:45.343Z,10.00
2023-01-31T14:39:18.299Z,10.70
2023-01-31T14:43:39.263Z,11.10
2023-01-31T14:47:49.341Z,9.40
2023-01-31T14:51:57.245Z,8.80
2023-01-31T14:56:22.266Z,9.40
2023-01-31T15:00:29.243Z,9.70
2023-01-31T15:04:36.288Z,9.20
2023-01-31T15:08:34.177Z,10.70
2023-01-31T15:13:11.259Z,9.80
2023-01-31T15:17:32.057Z,10.60
2023-01-31T15:21:40.275Z,8.90
2023-01-31T15:25:50.427Z,9.00
2023-01-31T15:30:00.258Z,9.60
2023-01-31T15:34:03.317Z,9.90
2023-01-31T15:38:08.167Z,9.10
2023-01-31T15:42:07.198Z,9.70
2023-01-31T15:46:06.261Z,9.10
2023-01-31T15:50:04.279Z,9.70
2023-01-31T15:54:02.250Z,9.40
2023-01-31T15:58:09.267Z,8.40
2023-01-31T16:02:12.204Z,8.30
2023-01-31T16:06:13.135Z,9.60
2023-01-31T16:10:18.147Z,10.80
2023-01-31T16:14:21.128Z,11.60
2023-01-31T16:18:19.315Z,10.80
2023-01-31T16:22:18.648Z,10.70
2023-01-31T16:26:39.237Z,13.10
2023-01-31T16:30:38.314Z,12.00
2023-01-31T16:34:46.112Z,10.60
2023-01-31T16:38:44.347Z,10.50
2023-01-31T16:42:42.135Z,12.10
2023-01-31T16:46:57.088Z,13.30
2023-01-31T16:50:55.104Z,16.60
2023-01-31T16:55:17.055Z,16.00
2023-01-31T16:59:15.594Z,13.80
2023-01-31T17:03:14.017Z,13.80
2023-01-31T17:07:29.165Z,12.80
2023-01-31T17:11:41.778Z,12.20
2023-01-31T17:15:40.093Z,13.00
2023-01-31T17:19:39.082Z,12.90
2023-01-31T17:23:37.266Z,13.00
2023-01-31T17:27:36.054Z,15.10
2023-01-31T17:31:36.135Z,14.00
2023-01-31T17:35:41.148Z,14.90
2023-01-31T17:39:39.091Z,13.10
2023-01-31T17:43:37.011Z,15.50
2023-01-31T17:47:35.068Z,15.30
2023-01-31T17:51:33.035Z,16.30
2023-01-31T17:55:32.031Z,13.70
2023-01-31T17:59:29.958Z,14.70
2023-01-31T18:03:33.273Z,16.30
2023-01-31T18:07:31.067Z,17.50
2023-01-31T18:11:30.982Z,17.30
2023-01-31T18:15:30.027Z,15.40
2023-01-31T18:19:28.005Z,15.10
2023-01-31T18:23:25.948Z,16.20
2023-01-31T18:27:24.077Z,14.30
2023-01-31T18:31:23.303Z,14.00
2023-01-31T18:35:21.175Z,11.70
2023-01-31T18:39:18.946Z,13.00
2023-01-31T18:43:17.942Z,11.60
2023-01-31T18:47:15.977Z,11.60
2023-01-31T18:51:20.955Z,13.40
2023-01-31T18:55:20.183Z,13.20
2023-01-31T18:59:17.875Z,14.10
2023-01-31T19:03:16.015Z,13.60
2023-01-31T19:07:14.098Z,13.60
2023-01-31T19:11:26.935Z,14.80
2023-01-31T19:15:27.170Z,16.60
2023-01-31T19:19:24.933Z,13.30
2023-01-31T19:23:22.916Z,13.50
2023-01-31T19:27:22.831Z,12.70
2023-01-31T19:31:26.882Z,13.00
2023-01-31T19:35:24.827Z,15.30
2023-01-31T19:39:26.864Z,15.80
2023-01-31T19:43:24.821Z,14.40
2023-01-31T19:47:22.913Z,15.30
2023-01-31T19:51:27.941Z,17.30
2023-01-31T19:55:25.854Z,19.40
2023-01-31T19:59:23.867Z,18.90
2023-01-31T20:03:23.788Z,20.10
2023-01-31T20:07:21.833Z,18.40
2023-01-31T20:11:21.167Z,19.10
2023-01-31T20:15:18.854Z,17.70
2023-01-31T20:19:18.074Z,18.50
2023-01-31T20:23:18.802Z,15.30
2023-01-31T20:27:16.799Z,18.10
2023-01-31T20:31:22.853Z,15.80
2023-01-31T20:35:21.869Z,15.80
2023-01-31T20:39:26.897Z,14.40
2023-01-31T20:43:25.190Z,15.20
2023-01-31T20:47:22.860Z,15.70
2023-01-31T20:51:20.855Z,13.80
2023-01-31T20:55:18.708Z,13.60
2023-01-31T20:59:16.771Z,12.70
2023-01-31T21:03:14.731Z,13.10
2023-01-31T21:07:12.745Z,14.50
2023-01-31T21:11:15.156Z,16.70
2023-01-31T21:15:12.800Z,14.40
2023-01-31T21:19:10.808Z,14.40
2023-01-31T21:23:08.821Z,14.60
2023-01-31T21:27:06.706Z,13.50
2023-01-31T21:31:17.089Z,12.10
2023-01-31T21:35:14.703Z,12.60
2023-01-31T21:39:12.681Z,12.00
2023-01-31T21:43:11.718Z,11.60
2023-01-31T21:47:11.710Z,12.60
2023-01-31T21:51:10.695Z,12.80
2023-01-31T21:55:08.826Z,12.80
2023-01-31T21:59:10.671Z,13.80
2023-01-31T22:03:09.653Z,13.60
2023-01-31T22:07:07.603Z,12.40
2023-01-31T22:11:12.645Z,12.70
2023-01-31T22:15:11.619Z,13.90
2023-01-31T22:19:09.647Z,14.60
2023-01-31T22:23:09.614Z,15.10
2023-01-31T22:27:07.678Z,13.50
2023-01-31T22:31:13.713Z,15.70
2023-01-31T22:35:11.680Z,14.20
2023-01-31T22:39:09.681Z,13.80
2023-01-31T22:43:07.760Z,13.90
2023-01-31T22:47:05.647Z,16.70
2023-01-31T22:51:14.682Z,15.90
2023-01-31T22:55:12.631Z,15.20
2023-01-31T22:59:16.670Z,16.40
2023-01-31T23:03:14.656Z,16.70
2023-01-31T23:07:12.626Z,18.20
2023-01-31T23:11:10.563Z,15.70
2023-01-31T23:15:09.579Z,19.00
2023-01-31T23:19:07.532Z,15.70
2023-01-31T23:23:10.584Z,17.80
2023-01-31T23:27:08.529Z,16.70
2023-01-31T23:31:06.588Z,16.50
2023-01-31T23:35:04.521Z,17.00
2023-01-31T23:39:02.567Z,19.50
2023-01-31T23:43:00.489Z,17.40
2023-01-31T23:47:01.026Z,16.80
2023-01-31T23:50:58.487Z,17.30
2023-01-31T23:54:56.510Z,17.50
2023-01-31T23:58:54.459Z,19.30
